createdAt,value
2022-10-20T00:00:56.552Z,3.90
2022-10-20T00:03:39.629Z,3.90
2022-10-20T00:06:16.154Z,4.00
2022-10-20T00:08:49.342Z,3.90
2022-10-20T00:11:23.872Z,3.80
2022-10-20T00:13:57.452Z,3.70
2022-10-20T00:16:34.640Z,3.60
2022-10-20T00:19:07.477Z,3.50
2022-10-20T00:21:40.465Z,3.50
2022-10-20T00:24:12.929Z,3.40
2022-10-20T00:26:45.605Z,3.50
2022-10-20T00:31:55.745Z,3.60
2022-10-20T00:34:28.204Z,3.60
2022-10-20T00:37:00.913Z,3.70
2022-10-20T00:39:33.387Z,3.70
2022-10-20T00:42:06.110Z,3.70
2022-10-20T00:44:56.238Z,3.60
2022-10-20T00:47:35.013Z,3.60
2022-10-20T00:50:13.042Z,3.50
2022-10-20T00:52:47.416Z,3.40
2022-10-20T00:55:24.704Z,3.30
2022-10-20T00:58:00.298Z,3.30
2022-10-20T01:00:32.940Z,3.20
2022-10-20T01:03:08.268Z,3.30
2022-10-20T01:05:41.033Z,3.30
2022-10-20T01:08:13.770Z,3.30
2022-10-20T01:10:58.124Z,3.30
2022-10-20T01:13:51.538Z,3.40
2022-10-20T01:16:36.481Z,3.40
2022-10-20T01:19:33.900Z,3.30
2022-10-20T01:22:56.861Z,3.30
2022-10-20T01:26:06.329Z,3.10
2022-10-20T01:29:00.349Z,3.10
2022-10-20T01:31:38.991Z,3.00
2022-10-20T01:34:37.425Z,3.10
2022-10-20T01:37:56.682Z,3.20
2022-10-20T01:40:34.769Z,3.20
2022-10-20T01:43:11.679Z,3.20
2022-10-20T01:45:46.645Z,3.20
2022-10-20T01:48:25.590Z,3.10
2022-10-20T01:50:59.314Z,2.90
2022-10-20T01:53:32.298Z,2.80
2022-10-20T01:56:06.415Z,2.70
2022-10-20T01:59:15.029Z,2.70
2022-10-20T02:02:22.308Z,2.70
2022-10-20T02:05:02.994Z,2.70
2022-10-20T02:07:36.154Z,2.60
2022-10-20T02:10:18.704Z,2.60
2022-10-20T02:12:56.804Z,2.50
2022-10-20T02:15:32.848Z,2.50
2022-10-20T02:18:08.726Z,2.50
2022-10-20T02:20:44.241Z,2.40
2022-10-20T02:23:17.949Z,2.30
2022-10-20T02:25:53.393Z,2.20
2022-10-20T02:28:28.334Z,2.10
2022-10-20T02:31:01.593Z,2.10
2022-10-20T02:33:34.986Z,2.10
2022-10-20T02:36:15.755Z,2.00
2022-10-20T02:38:48.229Z,1.90
2022-10-20T02:41:20.892Z,1.80
2022-10-20T02:43:53.367Z,1.80
2022-10-20T02:46:26.045Z,1.80
2022-10-20T02:48:58.577Z,1.70
2022-10-20T02:51:31.248Z,1.70
2022-10-20T02:54:03.841Z,1.60
2022-10-20T02:56:36.563Z,1.60
2022-10-20T02:59:14.048Z,1.50
2022-10-20T03:01:47.175Z,1.50
2022-10-20T03:04:19.889Z,1.50
2022-10-20T03:06:52.592Z,1.50
2022-10-20T03:09:25.459Z,1.60
2022-10-20T03:11:58.120Z,1.70
2022-10-20T03:14:30.581Z,1.70
2022-10-20T03:17:03.224Z,1.80
2022-10-20T03:19:35.661Z,1.90
2022-10-20T03:22:08.444Z,2.00
2022-10-20T03:24:41.417Z,2.20
2022-10-20T03:27:14.395Z,2.30
2022-10-20T03:29:46.878Z,2.40
2022-10-20T03:32:19.621Z,2.40
2022-10-20T03:34:52.107Z,2.50
2022-10-20T03:37:24.891Z,2.50
2022-10-20T03:39:57.325Z,2.50
2022-10-20T03:42:30.031Z,2.50
2022-10-20T03:45:02.503Z,2.60
2022-10-20T03:47:35.336Z,2.60
2022-10-20T03:50:08.233Z,2.60
2022-10-20T03:52:40.999Z,2.70
2022-10-20T03:55:13.521Z,2.70
2022-10-20T03:57:46.599Z,2.70
2022-10-20T04:00:19.245Z,2.80
2022-10-20T04:02:51.985Z,2.80
2022-10-20T04:05:24.524Z,2.80
2022-10-20T04:07:57.402Z,2.80
2022-10-20T04:10:30.487Z,2.80
2022-10-20T04:13:03.251Z,2.80
2022-10-20T04:15:36.257Z,2.70
2022-10-20T04:18:09.136Z,2.70
2022-10-20T04:20:44.367Z,2.60
2022-10-20T04:23:17.617Z,2.50
2022-10-20T04:25:50.205Z,2.40
2022-10-20T04:28:22.961Z,2.40
2022-10-20T04:30:57.216Z,2.20
2022-10-20T04:33:29.989Z,2.10
2022-10-20T04:36:05.942Z,2.00
2022-10-20T04:38:38.609Z,1.90
2022-10-20T04:41:11.824Z,1.80
2022-10-20T04:43:49.464Z,1.70
2022-10-20T04:46:22.027Z,1.60
2022-10-20T04:48:54.887Z,1.60
2022-10-20T04:51:27.400Z,1.50
2022-10-20T04:54:00.171Z,1.40
2022-10-20T04:56:32.692Z,1.40
2022-10-20T04:59:09.503Z,1.30
2022-10-20T05:01:45.136Z,1.20
2022-10-20T05:04:21.387Z,1.20
2022-10-20T05:06:53.938Z,1.10
2022-10-20T05:09:26.729Z,1.10
2022-10-20T05:11:59.630Z,1.00
2022-10-20T05:14:32.316Z,1.00
2022-10-20T05:17:07.816Z,0.90
2022-10-20T05:19:42.640Z,0.90
2022-10-20T05:22:15.124Z,0.90
2022-10-20T05:24:47.970Z,0.80
2022-10-20T05:27:22.834Z,0.80
2022-10-20T05:29:55.524Z,0.80
2022-10-20T05:32:28.060Z,0.80
2022-10-20T05:35:00.991Z,0.90
2022-10-20T05:37:34.692Z,1.00
2022-10-20T05:40:08.357Z,1.10
2022-10-20T05:42:40.867Z,1.10
2022-10-20T05:45:13.709Z,1.20
2022-10-20T05:47:46.207Z,1.20
2022-10-20T05:50:19.321Z,1.30
2022-10-20T05:52:51.835Z,1.30
2022-10-20T05:55:24.745Z,1.40
2022-10-20T05:57:57.254Z,1.40
2022-10-20T06:00:31.510Z,1.50
2022-10-20T06:03:04.093Z,1.50
2022-10-20T06:05:36.787Z,1.60
2022-10-20T06:08:09.270Z,1.70
2022-10-20T06:10:41.977Z,1.80
2022-10-20T06:13:14.530Z,1.90
2022-10-20T06:15:49.206Z,2.00
2022-10-20T06:18:21.673Z,2.10
2022-10-20T06:21:06.261Z,2.20
2022-10-20T06:23:39.159Z,2.30
2022-10-20T06:26:14.668Z,2.40
2022-10-20T06:28:50.352Z,2.40
2022-10-20T06:31:27.709Z,2.50
2022-10-20T06:34:00.721Z,2.60
2022-10-20T06:36:36.501Z,2.70
2022-10-20T06:39:12.924Z,2.90
2022-10-20T06:41:54.794Z,3.00
2022-10-20T06:44:27.603Z,3.10
2022-10-20T06:47:00.269Z,3.20
2022-10-20T06:49:32.850Z,3.30
2022-10-20T06:52:05.629Z,3.40
2022-10-20T06:54:38.123Z,3.60
2022-10-20T06:57:10.844Z,3.70
2022-10-20T06:59:43.327Z,3.90
2022-10-20T07:02:16.288Z,4.00
2022-10-20T07:04:50.535Z,4.10
2022-10-20T07:07:23.358Z,4.30
2022-10-20T07:09:55.950Z,4.40
2022-10-20T07:12:28.673Z,4.60
2022-10-20T07:15:01.194Z,4.70
2022-10-20T07:17:34.219Z,4.80
2022-10-20T07:20:07.238Z,4.90
2022-10-20T07:22:40.154Z,5.00
2022-10-20T07:25:12.598Z,5.00
2022-10-20T07:27:45.231Z,5.10
2022-10-20T07:30:17.751Z,5.10
2022-10-20T07:32:50.411Z,5.20
2022-10-20T07:35:22.897Z,5.30
2022-10-20T07:37:55.550Z,5.40
2022-10-20T07:40:28.226Z,5.50
2022-10-20T07:43:00.906Z,5.60
2022-10-20T07:45:33.502Z,5.70
2022-10-20T07:48:07.229Z,5.70
2022-10-20T07:50:40.817Z,5.80
2022-10-20T07:53:13.473Z,5.90
2022-10-20T07:55:46.137Z,6.00
2022-10-20T07:58:18.789Z,6.10
2022-10-20T08:00:51.253Z,6.10
2022-10-20T08:03:23.893Z,6.00
2022-10-20T08:05:56.589Z,6.10
2022-10-20T08:08:29.799Z,6.10
2022-10-20T08:11:02.824Z,6.10
2022-10-20T08:13:35.914Z,6.20
2022-10-20T08:21:48.833Z,6.40
2022-10-20T08:24:21.774Z,6.50
2022-10-20T08:26:54.235Z,6.50
2022-10-20T08:29:27.065Z,6.60
2022-10-20T08:31:59.545Z,6.70
2022-10-20T08:34:32.254Z,6.80
2022-10-20T08:37:04.721Z,6.80
2022-10-20T08:39:37.398Z,7.00
2022-10-20T08:42:11.001Z,7.00
2022-10-20T08:44:46.501Z,7.10
2022-10-20T08:47:33.738Z,7.20
2022-10-20T08:50:09.876Z,7.30
2022-10-20T08:52:44.866Z,7.40
2022-10-20T08:55:37.837Z,7.50
2022-10-20T08:58:20.590Z,7.60
2022-10-20T09:00:59.132Z,7.70
2022-10-20T09:03:33.575Z,7.80
2022-10-20T09:06:25.086Z,7.80
2022-10-20T09:08:58.005Z,8.00
2022-10-20T09:11:37.971Z,8.00
2022-10-20T09:14:14.394Z,8.10
2022-10-20T09:16:59.746Z,8.20
2022-10-20T09:19:33.146Z,8.20
2022-10-20T09:22:07.057Z,8.40
2022-10-20T09:24:42.871Z,8.40
2022-10-20T09:27:35.945Z,8.50
2022-10-20T09:30:25.898Z,8.50
2022-10-20T09:32:59.206Z,8.60
2022-10-20T09:35:35.810Z,8.60
2022-10-20T09:38:11.539Z,8.70
2022-10-20T09:40:57.948Z,8.80
2022-10-20T09:43:31.013Z,8.80
2022-10-20T09:46:09.553Z,8.90
2022-10-20T09:48:48.272Z,8.90
2022-10-20T09:51:24.423Z,9.00
2022-10-20T09:53:59.347Z,9.10
2022-10-20T09:56:41.345Z,9.20
2022-10-20T09:59:26.338Z,9.20
2022-10-20T10:02:01.901Z,9.30
2022-10-20T10:04:40.492Z,9.40
2022-10-20T10:07:27.898Z,9.40
2022-10-20T10:10:05.435Z,9.50
2022-10-20T10:12:40.741Z,9.50
2022-10-20T10:15:29.938Z,9.60
2022-10-20T10:18:14.816Z,9.60
2022-10-20T10:20:47.641Z,9.70
2022-10-20T10:23:20.110Z,9.70
2022-10-20T10:25:55.052Z,9.80
2022-10-20T10:28:36.364Z,9.90
2022-10-20T10:31:25.910Z,10.00
2022-10-20T10:34:29.781Z,10.00
2022-10-20T10:37:02.484Z,10.10
2022-10-20T10:39:36.424Z,10.10
2022-10-20T10:42:39.835Z,10.30
2022-10-20T10:45:27.608Z,10.30
2022-10-20T10:48:37.552Z,10.40
2022-10-20T10:51:41.840Z,10.60
2022-10-20T10:54:28.401Z,10.70
2022-10-20T10:57:15.132Z,10.70
2022-10-20T10:59:51.692Z,10.80
2022-10-20T11:02:45.862Z,10.90
2022-10-20T11:05:46.742Z,11.00
2022-10-20T11:08:22.200Z,11.10
2022-10-20T11:11:22.259Z,11.20
2022-10-20T11:13:54.819Z,11.30
2022-10-20T11:16:52.134Z,11.40
2022-10-20T11:19:40.869Z,11.50
2022-10-20T11:22:36.545Z,11.60
2022-10-20T11:25:21.212Z,11.70
2022-10-20T11:27:56.544Z,11.70
2022-10-20T11:30:30.396Z,11.80
2022-10-20T11:33:17.044Z,11.80
2022-10-20T11:35:54.811Z,11.80
2022-10-20T11:38:47.720Z,11.80
2022-10-20T11:41:51.485Z,11.80
2022-10-20T11:44:44.738Z,11.90
2022-10-20T11:47:24.176Z,11.90
2022-10-20T11:49:57.002Z,12.00
2022-10-20T11:52:47.701Z,12.00
2022-10-20T11:55:39.495Z,12.10
2022-10-20T11:58:53.276Z,12.10
2022-10-20T12:02:01.331Z,12.20
2022-10-20T12:05:11.623Z,12.20
2022-10-20T12:08:28.355Z,12.10
2022-10-20T12:11:05.755Z,12.00
2022-10-20T12:14:03.059Z,11.90
2022-10-20T12:16:54.217Z,11.80
2022-10-20T12:19:35.360Z,11.80
2022-10-20T12:22:14.083Z,11.70
2022-10-20T12:24:53.049Z,11.60
2022-10-20T12:27:27.856Z,11.60
2022-10-20T12:30:21.526Z,11.60
2022-10-20T12:32:55.706Z,11.60
2022-10-20T12:35:30.937Z,11.60
2022-10-20T12:46:06.294Z,11.70
2022-10-20T12:48:44.770Z,11.60
2022-10-20T12:51:56.167Z,11.50
2022-10-20T12:55:00.941Z,11.30
2022-10-20T12:57:42.120Z,11.10
2022-10-20T13:00:26.832Z,11.10
2022-10-20T13:03:42.028Z,11.00
2022-10-20T13:06:31.573Z,11.00
2022-10-20T13:09:24.018Z,10.90
2022-10-20T13:11:59.889Z,10.80
2022-10-20T13:15:29.496Z,10.60
2022-10-20T13:18:16.408Z,10.50
2022-10-20T13:21:25.582Z,10.50
2022-10-20T13:24:02.018Z,10.50
2022-10-20T13:27:01.560Z,10.70
2022-10-20T13:29:55.669Z,10.80
2022-10-20T13:33:38.513Z,11.00
2022-10-20T13:36:51.518Z,11.20
2022-10-20T13:39:48.164Z,11.40
2022-10-20T13:46:46.146Z,11.70
2022-10-20T13:49:47.368Z,11.70
2022-10-20T13:52:22.127Z,11.50
2022-10-20T13:54:58.649Z,11.40
2022-10-20T13:57:38.596Z,11.30
2022-10-20T14:00:57.921Z,11.20
2022-10-20T14:03:46.192Z,11.10
2022-10-20T14:06:27.547Z,11.10
2022-10-20T14:09:16.581Z,11.10
2022-10-20T14:12:08.808Z,11.20
2022-10-20T14:14:45.225Z,11.20
2022-10-20T14:17:27.205Z,11.30
2022-10-20T14:20:17.606Z,11.30
2022-10-20T14:22:55.067Z,11.30
2022-10-20T14:25:39.846Z,11.20
2022-10-20T14:29:01.950Z,11.00
2022-10-20T14:31:36.601Z,10.80
2022-10-20T14:34:25.784Z,10.50
2022-10-20T14:36:59.153Z,10.30
2022-10-20T14:39:40.166Z,10.10
2022-10-20T14:42:31.119Z,10.10
2022-10-20T14:45:04.838Z,10.00
2022-10-20T14:47:42.255Z,10.00
2022-10-20T14:50:36.808Z,10.00
2022-10-20T14:53:22.811Z,9.90
2022-10-20T14:55:57.389Z,9.90
2022-10-20T14:58:37.115Z,9.80
2022-10-20T15:01:21.258Z,9.80
2022-10-20T15:04:23.839Z,9.70
2022-10-20T15:07:06.713Z,9.60
2022-10-20T15:09:48.808Z,9.60
2022-10-20T15:12:33.754Z,9.40
2022-10-20T15:15:28.218Z,9.40
2022-10-20T15:18:06.808Z,9.20
2022-10-20T15:20:44.507Z,9.10
2022-10-20T15:23:29.853Z,8.90
2022-10-20T15:26:06.077Z,8.80
2022-10-20T15:28:46.112Z,8.60
2022-10-20T15:31:24.607Z,8.40
2022-10-20T15:33:58.477Z,8.30
2022-10-20T15:36:41.814Z,8.10
2022-10-20T15:39:15.302Z,8.00
2022-10-20T15:41:50.243Z,8.00
2022-10-20T15:44:25.849Z,7.90
2022-10-20T15:47:04.757Z,7.80
2022-10-20T15:49:37.546Z,7.80
2022-10-20T15:52:10.827Z,7.60
2022-10-20T15:54:43.822Z,7.50
2022-10-20T15:57:16.405Z,7.40
2022-10-20T15:59:49.505Z,7.40
2022-10-20T16:02:22.034Z,7.30
2022-10-20T16:04:54.826Z,7.20
2022-10-20T16:07:30.267Z,7.20
2022-10-20T16:10:03.712Z,7.10
2022-10-20T16:12:41.046Z,7.00
2022-10-20T16:15:14.204Z,6.90
2022-10-20T16:20:27.982Z,6.90
2022-10-20T16:23:00.566Z,6.70
2022-10-20T16:25:33.339Z,6.70
2022-10-20T16:28:06.068Z,6.70
2022-10-20T16:30:40.064Z,6.70
2022-10-20T16:33:12.613Z,6.70
2022-10-20T16:35:45.643Z,6.60
2022-10-20T16:38:18.221Z,6.50
2022-10-20T16:44:01.448Z,6.40
2022-10-20T16:46:34.374Z,6.40
2022-10-20T16:49:07.047Z,6.40
2022-10-20T16:51:40.707Z,6.40
2022-10-20T16:54:14.136Z,6.30
2022-10-20T16:56:47.026Z,6.20
2022-10-20T16:59:19.757Z,6.20
2022-10-20T17:01:54.339Z,6.20
2022-10-20T17:04:27.075Z,6.20
2022-10-20T17:06:59.891Z,6.10
2022-10-20T17:09:32.454Z,6.00
2022-10-20T17:12:05.649Z,6.00
2022-10-20T17:14:40.639Z,6.00
2022-10-20T17:17:13.422Z,5.90
2022-10-20T17:19:45.881Z,5.90
2022-10-20T17:22:18.627Z,5.90
2022-10-20T17:24:51.169Z,5.90
2022-10-20T17:27:23.903Z,5.90
2022-10-20T17:29:56.474Z,5.80
2022-10-20T17:32:29.671Z,5.80
2022-10-20T17:35:02.934Z,5.80
2022-10-20T17:37:35.723Z,5.70
2022-10-20T17:40:08.762Z,5.70
2022-10-20T17:42:41.534Z,5.70
2022-10-20T17:45:14.234Z,5.70
2022-10-20T17:47:47.012Z,5.70
2022-10-20T17:50:19.590Z,5.60
2022-10-20T17:52:52.486Z,5.50
2022-10-20T17:55:25.137Z,5.40
2022-10-20T17:58:00.413Z,5.40
2022-10-20T18:00:54.764Z,5.40
2022-10-20T18:03:27.756Z,5.40
2022-10-20T18:06:10.964Z,5.40
2022-10-20T18:08:44.428Z,5.40
2022-10-20T18:11:20.460Z,5.30
2022-10-20T18:13:56.126Z,5.30
2022-10-20T18:16:31.287Z,5.30
2022-10-20T18:19:04.673Z,5.20
2022-10-20T18:21:37.970Z,5.20
2022-10-20T18:24:13.544Z,5.10
2022-10-20T18:26:46.583Z,5.10
2022-10-20T18:29:19.504Z,5.10
2022-10-20T18:31:52.282Z,5.00
2022-10-20T18:34:25.099Z,4.90
2022-10-20T18:36:57.823Z,4.90
2022-10-20T18:39:34.305Z,5.00
2022-10-20T18:42:06.828Z,4.90
2022-10-20T18:44:39.521Z,4.90
2022-10-20T18:47:12.055Z,4.90
2022-10-20T18:49:44.788Z,4.90
2022-10-20T18:52:31.846Z,4.90
2022-10-20T18:55:05.032Z,4.80
2022-10-20T18:57:40.527Z,4.80
2022-10-20T19:00:14.071Z,4.70
2022-10-20T19:02:51.409Z,4.70
2022-10-20T19:05:24.100Z,4.70
2022-10-20T19:07:56.657Z,4.70
2022-10-20T19:10:29.386Z,4.70
2022-10-20T19:13:02.008Z,4.70
2022-10-20T19:15:40.455Z,4.70
2022-10-20T19:18:12.971Z,4.70
2022-10-20T19:21:01.884Z,4.60
2022-10-20T19:24:05.460Z,4.60
2022-10-20T19:26:57.138Z,4.70
2022-10-20T19:29:35.425Z,4.70
2022-10-20T19:32:08.551Z,4.70
2022-10-20T19:34:41.667Z,4.70
2022-10-20T19:37:14.409Z,4.60
2022-10-20T19:39:46.930Z,4.70
2022-10-20T19:42:19.804Z,4.70
2022-10-20T19:44:52.453Z,4.60
2022-10-20T19:47:25.356Z,4.70
2022-10-20T19:50:00.572Z,4.60
2022-10-20T19:52:36.797Z,4.60
2022-10-20T19:55:09.606Z,4.60
2022-10-20T19:57:42.460Z,4.70
2022-10-20T20:00:15.125Z,4.60
2022-10-20T20:02:50.458Z,4.60
2022-10-20T20:05:23.019Z,4.60
2022-10-20T20:07:58.313Z,4.60
2022-10-20T20:10:31.426Z,4.60
2022-10-20T20:13:04.732Z,4.60
2022-10-20T20:15:37.299Z,4.60
2022-10-20T20:18:12.234Z,4.60
2022-10-20T20:20:52.324Z,4.50
2022-10-20T20:23:34.668Z,4.40
2022-10-20T20:26:16.075Z,4.40
2022-10-20T20:28:49.435Z,4.40
2022-10-20T20:31:28.350Z,4.40
2022-10-20T20:34:01.229Z,4.40
2022-10-20T20:36:33.849Z,4.30
2022-10-20T20:39:10.018Z,4.30
2022-10-20T20:41:43.272Z,4.20
2022-10-20T20:44:16.168Z,4.20
2022-10-20T20:46:48.828Z,4.20
2022-10-20T20:49:21.602Z,4.20
2022-10-20T20:51:54.156Z,4.20
2022-10-20T20:54:28.358Z,4.10
2022-10-20T20:57:03.597Z,4.20
2022-10-20T20:59:36.365Z,4.20
2022-10-20T21:02:10.227Z,4.30
2022-10-20T21:04:42.996Z,4.20
2022-10-20T21:07:15.574Z,4.20
2022-10-20T21:09:48.922Z,4.20
2022-10-20T21:12:21.511Z,4.20
2022-10-20T21:14:54.346Z,4.20
2022-10-20T21:17:26.946Z,4.20
2022-10-20T21:20:00.016Z,4.20
2022-10-20T21:22:32.495Z,4.10
2022-10-20T21:25:05.796Z,4.10
2022-10-20T21:27:38.345Z,4.10
2022-10-20T21:30:11.279Z,4.10
2022-10-20T21:32:43.826Z,4.10
2022-10-20T21:35:16.555Z,4.10
2022-10-20T21:37:49.070Z,4.00
2022-10-20T21:40:22.023Z,4.00
2022-10-20T21:42:55.020Z,4.00
2022-10-20T21:45:28.158Z,3.90
2022-10-20T21:48:01.075Z,3.90
2022-10-20T21:50:36.784Z,4.00
2022-10-20T21:53:09.322Z,4.00
2022-10-20T21:55:42.051Z,4.10
2022-10-20T21:58:14.646Z,4.00
2022-10-20T22:00:51.294Z,3.90
2022-10-20T22:03:24.811Z,3.90
2022-10-20T22:05:57.537Z,4.00
2022-10-20T22:08:30.465Z,4.00
2022-10-20T22:11:06.136Z,4.00
2022-10-20T22:13:38.868Z,3.90
2022-10-20T22:16:15.423Z,3.90
2022-10-20T22:18:48.441Z,3.90
2022-10-20T22:21:21.151Z,3.80
2022-10-20T22:23:55.662Z,3.70
2022-10-20T22:26:29.996Z,3.70
2022-10-20T22:29:04.510Z,3.80
2022-10-20T22:31:38.614Z,3.70
2022-10-20T22:34:11.520Z,3.80
2022-10-20T22:36:44.601Z,3.70
2022-10-20T22:39:17.241Z,3.70
2022-10-20T22:41:50.073Z,3.60
2022-10-20T22:44:22.672Z,3.60
2022-10-20T22:46:55.382Z,3.60
2022-10-20T22:49:27.858Z,3.60
2022-10-20T22:52:00.579Z,3.70
2022-10-20T22:54:33.137Z,3.60
2022-10-20T22:57:05.807Z,3.60
2022-10-20T22:59:38.338Z,3.50
2022-10-20T23:02:11.135Z,3.50
2022-10-20T23:04:43.679Z,3.50
2022-10-20T23:07:16.391Z,3.40
2022-10-20T23:09:48.843Z,3.40
2022-10-20T23:12:21.511Z,3.40
2022-10-20T23:14:54.008Z,3.40
2022-10-20T23:17:27.422Z,3.40
2022-10-20T23:19:59.898Z,3.40
2022-10-20T23:22:32.574Z,3.30
2022-10-20T23:25:05.393Z,3.30
2022-10-20T23:27:39.322Z,3.30
2022-10-20T23:30:12.079Z,3.30
2022-10-20T23:32:45.024Z,3.30
2022-10-20T23:35:17.485Z,3.30
2022-10-20T23:37:50.142Z,3.30
2022-10-20T23:40:22.605Z,3.30
2022-10-20T23:42:55.602Z,3.30
2022-10-20T23:45:28.078Z,3.20
2022-10-20T23:48:00.790Z,3.20
2022-10-20T23:50:33.271Z,3.20
2022-10-20T23:53:05.949Z,3.10
2022-10-20T23:55:38.749Z,3.10
2022-10-20T23:58:11.774Z,3.00
